sensor_id;sensor_type;location;lat;lon;timestamp;P1;durP1;ratioP1;P2;durP2;ratioP2
68010;SDS011;54794;48.348;7.878;2024-01-06T00:00:24;1.13;;;0.45;;
68010;SDS011;54794;48.348;7.878;2024-01-06T00:02:51;0.82;;;0.50;;
68010;SDS011;54794;48.348;7.878;2024-01-06T00:05:18;2.42;;;0.57;;
68010;SDS011;54794;48.348;7.878;2024-01-06T00:07:45;0.55;;;0.40;;
68010;SDS011;54794;48.348;7.878;2024-01-06T00:10:12;1.88;;;0.70;;
68010;SDS011;54794;48.348;7.878;2024-01-06T00:12:42;1.15;;;0.55;;
68010;SDS011;54794;48.348;7.878;2024-01-06T00:15:09;0.55;;;0.30;;
68010;SDS011;54794;48.348;7.878;2024-01-06T00:17:37;1.23;;;0.40;;
68010;SDS011;54794;48.348;7.878;2024-01-06T00:20:03;0.80;;;0.40;;
68010;SDS011;54794;48.348;7.878;2024-01-06T00:22:32;0.95;;;0.50;;
68010;SDS011;54794;48.348;7.878;2024-01-06T00:24:58;0.63;;;0.30;;
68010;SDS011;54794;48.348;7.878;2024-01-06T00:27:26;1.20;;;0.45;;
68010;SDS011;54794;48.348;7.878;2024-01-06T00:29:52;1.58;;;0.40;;
68010;SDS011;54794;48.348;7.878;2024-01-06T00:32:19;1.33;;;0.50;;
68010;SDS011;54794;48.348;7.878;2024-01-06T00:34:46;1.10;;;0.55;;
68010;SDS011;54794;48.348;7.878;2024-01-06T00:37:13;0.50;;;0.35;;
68010;SDS011;54794;48.348;7.878;2024-01-06T00:39:40;0.70;;;0.40;;
68010;SDS011;54794;48.348;7.878;2024-01-06T00:42:07;1.27;;;0.60;;
68010;SDS011;54794;48.348;7.878;2024-01-06T00:44:35;1.15;;;0.45;;
68010;SDS011;54794;48.348;7.878;2024-01-06T00:47:03;1.00;;;0.50;;
68010;SDS011;54794;48.348;7.878;2024-01-06T00:49:30;0.65;;;0.50;;
68010;SDS011;54794;48.348;7.878;2024-01-06T00:51:57;2.30;;;0.70;;
68010;SDS011;54794;48.348;7.878;2024-01-06T00:54:24;1.08;;;0.50;;
68010;SDS011;54794;48.348;7.878;2024-01-06T00:56:50;0.73;;;0.50;;
68010;SDS011;54794;48.348;7.878;2024-01-06T00:59:20;1.77;;;0.60;;
68010;SDS011;54794;48.348;7.878;2024-01-06T01:01:47;1.63;;;0.60;;
68010;SDS011;54794;48.348;7.878;2024-01-06T01:04:14;1.10;;;0.52;;
68010;SDS011;54794;48.348;7.878;2024-01-06T01:06:41;1.02;;;0.60;;
68010;SDS011;54794;48.348;7.878;2024-01-06T01:09:08;1.27;;;0.63;;
68010;SDS011;54794;48.348;7.878;2024-01-06T01:11:36;1.88;;;0.70;;
68010;SDS011;54794;48.348;7.878;2024-01-06T01:14:03;1.77;;;0.75;;
68010;SDS011;54794;48.348;7.878;2024-01-06T01:16:30;2.42;;;1.23;;
68010;SDS011;54794;48.348;7.878;2024-01-06T01:18:58;2.42;;;1.08;;
68010;SDS011;54794;48.348;7.878;2024-01-06T01:21:25;1.48;;;0.90;;
68010;SDS011;54794;48.348;7.878;2024-01-06T01:23:52;1.95;;;1.13;;
68010;SDS011;54794;48.348;7.878;2024-01-06T01:26:19;2.33;;;1.10;;
68010;SDS011;54794;48.348;7.878;2024-01-06T01:28:45;2.15;;;1.10;;
68010;SDS011;54794;48.348;7.878;2024-01-06T01:31:12;1.87;;;1.10;;
68010;SDS011;54794;48.348;7.878;2024-01-06T01:33:39;2.70;;;1.20;;
68010;SDS011;54794;48.348;7.878;2024-01-06T01:36:06;2.58;;;1.25;;
68010;SDS011;54794;48.348;7.878;2024-01-06T01:38:33;2.47;;;0.90;;
68010;SDS011;54794;48.348;7.878;2024-01-06T01:41:00;2.30;;;1.00;;
68010;SDS011;54794;48.348;7.878;2024-01-06T01:43:27;1.60;;;0.95;;
68010;SDS011;54794;48.348;7.878;2024-01-06T01:45:55;2.55;;;1.13;;
68010;SDS011;54794;48.348;7.878;2024-01-06T01:48:23;2.08;;;1.08;;
68010;SDS011;54794;48.348;7.878;2024-01-06T01:50:52;2.15;;;1.00;;
68010;SDS011;54794;48.348;7.878;2024-01-06T01:53:20;2.17;;;1.00;;
68010;SDS011;54794;48.348;7.878;2024-01-06T01:55:48;1.77;;;1.13;;
68010;SDS011;54794;48.348;7.878;2024-01-06T01:58:15;2.70;;;1.20;;
68010;SDS011;54794;48.348;7.878;2024-01-06T02:00:43;1.52;;;1.00;;
68010;SDS011;54794;48.348;7.878;2024-01-06T02:03:10;1.52;;;0.90;;
68010;SDS011;54794;48.348;7.878;2024-01-06T02:05:39;1.23;;;0.65;;
68010;SDS011;54794;48.348;7.878;2024-01-06T02:08:07;1.63;;;0.88;;
68010;SDS011;54794;48.348;7.878;2024-01-06T02:10:34;1.20;;;0.70;;
68010;SDS011;54794;48.348;7.878;2024-01-06T02:13:08;1.73;;;0.80;;
68010;SDS011;54794;48.348;7.878;2024-01-06T02:15:38;1.02;;;0.73;;
68010;SDS011;54794;48.348;7.878;2024-01-06T02:18:06;1.48;;;0.90;;
68010;SDS011;54794;48.348;7.878;2024-01-06T02:23:00;1.13;;;0.60;;
68010;SDS011;54794;48.348;7.878;2024-01-06T02:25:27;2.47;;;0.85;;
68010;SDS011;54794;48.348;7.878;2024-01-06T02:30:22;1.27;;;0.60;;
68010;SDS011;54794;48.348;7.878;2024-01-06T02:32:49;1.13;;;0.65;;
68010;SDS011;54794;48.348;7.878;2024-01-06T02:35:15;1.88;;;0.65;;
68010;SDS011;54794;48.348;7.878;2024-01-06T02:37:42;1.00;;;0.70;;
68010;SDS011;54794;48.348;7.878;2024-01-06T02:40:09;1.33;;;0.60;;
68010;SDS011;54794;48.348;7.878;2024-01-06T02:42:37;1.88;;;0.70;;
68010;SDS011;54794;48.348;7.878;2024-01-06T02:45:04;1.63;;;0.77;;
68010;SDS011;54794;48.348;7.878;2024-01-06T02:47:31;2.70;;;0.75;;
68010;SDS011;54794;48.348;7.878;2024-01-06T02:49:58;4.07;;;0.90;;
68010;SDS011;54794;48.348;7.878;2024-01-06T02:52:25;2.33;;;0.90;;
68010;SDS011;54794;48.348;7.878;2024-01-06T02:54:52;0.90;;;0.60;;
68010;SDS011;54794;48.348;7.878;2024-01-06T02:57:19;2.20;;;0.68;;
68010;SDS011;54794;48.348;7.878;2024-01-06T02:59:46;1.65;;;0.85;;
68010;SDS011;54794;48.348;7.878;2024-01-06T03:02:13;1.40;;;0.70;;
68010;SDS011;54794;48.348;7.878;2024-01-06T03:04:39;1.83;;;0.67;;
68010;SDS011;54794;48.348;7.878;2024-01-06T03:07:06;1.42;;;0.70;;
68010;SDS011;54794;48.348;7.878;2024-01-06T03:09:33;1.57;;;0.67;;
68010;SDS011;54794;48.348;7.878;2024-01-06T03:12:00;1.55;;;0.43;;
68010;SDS011;54794;48.348;7.878;2024-01-06T03:14:27;2.10;;;0.70;;
68010;SDS011;54794;48.348;7.878;2024-01-06T03:16:53;1.03;;;0.50;;
68010;SDS011;54794;48.348;7.878;2024-01-06T03:19:21;1.02;;;0.52;;
68010;SDS011;54794;48.348;7.878;2024-01-06T03:21:52;0.75;;;0.50;;
68010;SDS011;54794;48.348;7.878;2024-01-06T03:24:20;0.73;;;0.52;;
68010;SDS011;54794;48.348;7.878;2024-01-06T03:26:49;1.58;;;0.70;;
68010;SDS011;54794;48.348;7.878;2024-01-06T03:29:16;1.20;;;0.55;;
68010;SDS011;54794;48.348;7.878;2024-01-06T03:31:43;0.88;;;0.50;;
68010;SDS011;54794;48.348;7.878;2024-01-06T03:34:11;1.05;;;0.50;;
68010;SDS011;54794;48.348;7.878;2024-01-06T03:36:38;0.80;;;0.55;;
68010;SDS011;54794;48.348;7.878;2024-01-06T03:39:07;0.73;;;0.47;;
68010;SDS011;54794;48.348;7.878;2024-01-06T03:44:01;0.75;;;0.40;;
68010;SDS011;54794;48.348;7.878;2024-01-06T03:46:27;1.92;;;0.68;;
68010;SDS011;54794;48.348;7.878;2024-01-06T03:48:54;1.53;;;0.70;;
68010;SDS011;54794;48.348;7.878;2024-01-06T03:51:21;0.70;;;0.50;;
68010;SDS011;54794;48.348;7.878;2024-01-06T03:53:48;0.93;;;0.50;;
68010;SDS011;54794;48.348;7.878;2024-01-06T03:56:18;0.82;;;0.40;;
68010;SDS011;54794;48.348;7.878;2024-01-06T03:58:45;0.70;;;0.50;;
68010;SDS011;54794;48.348;7.878;2024-01-06T04:01:12;0.85;;;0.47;;
68010;SDS011;54794;48.348;7.878;2024-01-06T04:03:38;0.70;;;0.50;;
68010;SDS011;54794;48.348;7.878;2024-01-06T04:06:08;0.70;;;0.40;;
68010;SDS011;54794;48.348;7.878;2024-01-06T04:08:36;0.77;;;0.50;;
68010;SDS011;54794;48.348;7.878;2024-01-06T04:11:05;1.52;;;0.50;;
68010;SDS011;54794;48.348;7.878;2024-01-06T04:13:31;1.00;;;0.50;;
68010;SDS011;54794;48.348;7.878;2024-01-06T04:15:58;0.57;;;0.40;;
68010;SDS011;54794;48.348;7.878;2024-01-06T04:18:25;1.77;;;0.47;;
68010;SDS011;54794;48.348;7.878;2024-01-06T04:20:52;1.35;;;0.75;;
68010;SDS011;54794;48.348;7.878;2024-01-06T04:23:19;0.40;;;0.30;;
68010;SDS011;54794;48.348;7.878;2024-01-06T04:25:51;0.57;;;0.40;;
68010;SDS011;54794;48.348;7.878;2024-01-06T04:30:44;1.65;;;0.50;;
68010;SDS011;54794;48.348;7.878;2024-01-06T04:33:11;0.52;;;0.30;;
68010;SDS011;54794;48.348;7.878;2024-01-06T04:35:38;1.67;;;0.50;;
68010;SDS011;54794;48.348;7.878;2024-01-06T04:38:05;1.45;;;0.50;;
68010;SDS011;54794;48.348;7.878;2024-01-06T04:40:32;2.63;;;0.68;;
68010;SDS011;54794;48.348;7.878;2024-01-06T04:43:01;1.42;;;0.50;;
68010;SDS011;54794;48.348;7.878;2024-01-06T04:45:29;0.73;;;0.40;;
68010;SDS011;54794;48.348;7.878;2024-01-06T04:47:56;1.60;;;0.47;;
68010;SDS011;54794;48.348;7.878;2024-01-06T04:50:22;0.77;;;0.40;;
68010;SDS011;54794;48.348;7.878;2024-01-06T04:52:49;0.90;;;0.50;;
68010;SDS011;54794;48.348;7.878;2024-01-06T04:55:16;1.10;;;0.40;;
68010;SDS011;54794;48.348;7.878;2024-01-06T04:57:43;0.52;;;0.38;;
68010;SDS011;54794;48.348;7.878;2024-01-06T05:00:10;0.40;;;0.30;;
68010;SDS011;54794;48.348;7.878;2024-01-06T05:02:38;0.80;;;0.40;;
68010;SDS011;54794;48.348;7.878;2024-01-06T05:05:05;0.68;;;0.40;;
68010;SDS011;54794;48.348;7.878;2024-01-06T05:07:32;0.75;;;0.30;;
68010;SDS011;54794;48.348;7.878;2024-01-06T05:09:59;0.60;;;0.30;;
68010;SDS011;54794;48.348;7.878;2024-01-06T05:12:26;0.77;;;0.40;;
68010;SDS011;54794;48.348;7.878;2024-01-06T05:14:53;1.75;;;0.50;;
68010;SDS011;54794;48.348;7.878;2024-01-06T05:17:20;1.25;;;0.60;;
68010;SDS011;54794;48.348;7.878;2024-01-06T05:19:46;1.00;;;0.50;;
68010;SDS011;54794;48.348;7.878;2024-01-06T05:22:14;0.85;;;0.50;;
68010;SDS011;54794;48.348;7.878;2024-01-06T05:24:41;0.80;;;0.30;;
68010;SDS011;54794;48.348;7.878;2024-01-06T05:27:07;0.85;;;0.35;;
68010;SDS011;54794;48.348;7.878;2024-01-06T05:29:38;0.88;;;0.40;;
68010;SDS011;54794;48.348;7.878;2024-01-06T05:32:05;0.60;;;0.30;;
68010;SDS011;54794;48.348;7.878;2024-01-06T05:37:00;0.70;;;0.35;;
68010;SDS011;54794;48.348;7.878;2024-01-06T05:39:27;0.75;;;0.30;;
68010;SDS011;54794;48.348;7.878;2024-01-06T05:41:54;1.60;;;0.50;;
68010;SDS011;54794;48.348;7.878;2024-01-06T05:44:20;0.80;;;0.40;;
68010;SDS011;54794;48.348;7.878;2024-01-06T05:46:47;0.70;;;0.38;;
68010;SDS011;54794;48.348;7.878;2024-01-06T05:49:14;1.55;;;0.60;;
68010;SDS011;54794;48.348;7.878;2024-01-06T05:51:44;1.23;;;0.35;;
68010;SDS011;54794;48.348;7.878;2024-01-06T05:54:12;0.68;;;0.30;;
68010;SDS011;54794;48.348;7.878;2024-01-06T05:56:39;1.08;;;0.50;;
68010;SDS011;54794;48.348;7.878;2024-01-06T05:59:06;1.88;;;0.60;;
68010;SDS011;54794;48.348;7.878;2024-01-06T06:01:33;1.00;;;0.43;;
68010;SDS011;54794;48.348;7.878;2024-01-06T06:04:00;1.33;;;0.60;;
68010;SDS011;54794;48.348;7.878;2024-01-06T06:06:27;0.47;;;0.30;;
68010;SDS011;54794;48.348;7.878;2024-01-06T06:08:54;1.05;;;0.57;;
68010;SDS011;54794;48.348;7.878;2024-01-06T06:11:21;0.60;;;0.40;;
68010;SDS011;54794;48.348;7.878;2024-01-06T06:13:48;1.02;;;0.60;;
68010;SDS011;54794;48.348;7.878;2024-01-06T06:16:15;0.63;;;0.25;;
68010;SDS011;54794;48.348;7.878;2024-01-06T06:18:41;0.65;;;0.30;;
68010;SDS011;54794;48.348;7.878;2024-01-06T06:21:09;0.28;;;0.22;;
68010;SDS011;54794;48.348;7.878;2024-01-06T06:23:36;3.80;;;0.47;;
68010;SDS011;54794;48.348;7.878;2024-01-06T06:26:04;3.20;;;0.40;;
68010;SDS011;54794;48.348;7.878;2024-01-06T06:28:33;0.90;;;0.60;;
68010;SDS011;54794;48.348;7.878;2024-01-06T06:31:01;1.52;;;0.50;;
68010;SDS011;54794;48.348;7.878;2024-01-06T06:33:29;1.08;;;0.50;;
68010;SDS011;54794;48.348;7.878;2024-01-06T06:38:24;0.43;;;0.30;;
68010;SDS011;54794;48.348;7.878;2024-01-06T06:40:52;0.75;;;0.35;;
68010;SDS011;54794;48.348;7.878;2024-01-06T06:43:20;2.40;;;0.80;;
68010;SDS011;54794;48.348;7.878;2024-01-06T06:45:46;1.23;;;0.40;;
68010;SDS011;54794;48.348;7.878;2024-01-06T06:48:13;0.82;;;0.40;;
68010;SDS011;54794;48.348;7.878;2024-01-06T06:50:41;1.15;;;0.38;;
68010;SDS011;54794;48.348;7.878;2024-01-06T06:53:08;0.93;;;0.47;;
68010;SDS011;54794;48.348;7.878;2024-01-06T06:55:35;1.65;;;0.57;;
68010;SDS011;54794;48.348;7.878;2024-01-06T06:58:04;0.38;;;0.30;;
68010;SDS011;54794;48.348;7.878;2024-01-06T07:02:59;0.93;;;0.35;;
68010;SDS011;54794;48.348;7.878;2024-01-06T07:05:26;0.70;;;0.50;;
68010;SDS011;54794;48.348;7.878;2024-01-06T07:07:53;0.90;;;0.43;;
68010;SDS011;54794;48.348;7.878;2024-01-06T07:12:48;0.98;;;0.38;;
68010;SDS011;54794;48.348;7.878;2024-01-06T07:15:15;0.93;;;0.50;;
68010;SDS011;54794;48.348;7.878;2024-01-06T07:17:42;3.42;;;0.70;;
68010;SDS011;54794;48.348;7.878;2024-01-06T07:20:10;0.98;;;0.30;;
68010;SDS011;54794;48.348;7.878;2024-01-06T07:22:37;0.80;;;0.43;;
68010;SDS011;54794;48.348;7.878;2024-01-06T07:25:04;0.80;;;0.50;;
68010;SDS011;54794;48.348;7.878;2024-01-06T07:27:32;1.45;;;0.57;;
68010;SDS011;54794;48.348;7.878;2024-01-06T07:29:59;0.80;;;0.40;;
68010;SDS011;54794;48.348;7.878;2024-01-06T07:32:26;2.40;;;0.70;;
68010;SDS011;54794;48.348;7.878;2024-01-06T07:34:53;1.40;;;0.60;;
68010;SDS011;54794;48.348;7.878;2024-01-06T07:37:20;1.13;;;0.63;;
68010;SDS011;54794;48.348;7.878;2024-01-06T07:39:47;1.27;;;0.70;;
68010;SDS011;54794;48.348;7.878;2024-01-06T07:42:14;1.02;;;0.60;;
68010;SDS011;54794;48.348;7.878;2024-01-06T07:44:41;1.02;;;0.60;;
68010;SDS011;54794;48.348;7.878;2024-01-06T07:47:08;1.30;;;0.65;;
68010;SDS011;54794;48.348;7.878;2024-01-06T07:49:34;1.40;;;0.50;;
68010;SDS011;54794;48.348;7.878;2024-01-06T07:52:02;1.38;;;0.50;;
68010;SDS011;54794;48.348;7.878;2024-01-06T07:54:29;3.50;;;0.60;;
68010;SDS011;54794;48.348;7.878;2024-01-06T07:56:56;0.70;;;0.40;;
68010;SDS011;54794;48.348;7.878;2024-01-06T07:59:23;0.40;;;0.40;;
68010;SDS011;54794;48.348;7.878;2024-01-06T08:01:50;1.02;;;0.45;;
68010;SDS011;54794;48.348;7.878;2024-01-06T08:04:17;0.95;;;0.50;;
68010;SDS011;54794;48.348;7.878;2024-01-06T08:06:44;1.00;;;0.63;;
68010;SDS011;54794;48.348;7.878;2024-01-06T08:09:11;2.03;;;0.80;;
68010;SDS011;54794;48.348;7.878;2024-01-06T08:11:38;1.00;;;0.60;;
68010;SDS011;54794;48.348;7.878;2024-01-06T08:14:05;1.42;;;0.57;;
68010;SDS011;54794;48.348;7.878;2024-01-06T08:16:32;1.15;;;0.40;;
68010;SDS011;54794;48.348;7.878;2024-01-06T08:18:59;0.85;;;0.35;;
68010;SDS011;54794;48.348;7.878;2024-01-06T08:21:26;1.10;;;0.57;;
68010;SDS011;54794;48.348;7.878;2024-01-06T08:26:22;0.80;;;0.57;;
68010;SDS011;54794;48.348;7.878;2024-01-06T08:28:49;1.77;;;1.00;;
68010;SDS011;54794;48.348;7.878;2024-01-06T08:31:16;2.75;;;0.90;;
68010;SDS011;54794;48.348;7.878;2024-01-06T08:33:49;1.42;;;0.80;;
68010;SDS011;54794;48.348;7.878;2024-01-06T08:36:16;1.63;;;0.90;;
68010;SDS011;54794;48.348;7.878;2024-01-06T08:38:43;1.52;;;0.85;;
68010;SDS011;54794;48.348;7.878;2024-01-06T08:41:10;1.58;;;0.70;;
68010;SDS011;54794;48.348;7.878;2024-01-06T08:43:37;1.75;;;0.90;;
68010;SDS011;54794;48.348;7.878;2024-01-06T08:46:06;1.60;;;0.82;;
68010;SDS011;54794;48.348;7.878;2024-01-06T08:48:36;1.33;;;0.73;;
68010;SDS011;54794;48.348;7.878;2024-01-06T08:51:03;2.00;;;0.80;;
68010;SDS011;54794;48.348;7.878;2024-01-06T08:53:30;1.17;;;0.63;;
68010;SDS011;54794;48.348;7.878;2024-01-06T08:55:57;0.90;;;0.60;;
68010;SDS011;54794;48.348;7.878;2024-01-06T08:58:24;1.05;;;0.68;;
68010;SDS011;54794;48.348;7.878;2024-01-06T09:00:51;1.00;;;0.70;;
68010;SDS011;54794;48.348;7.878;2024-01-06T09:03:19;1.30;;;0.52;;
68010;SDS011;54794;48.348;7.878;2024-01-06T09:05:52;0.90;;;0.70;;
68010;SDS011;54794;48.348;7.878;2024-01-06T09:08:21;1.02;;;0.40;;
68010;SDS011;54794;48.348;7.878;2024-01-06T09:10:48;0.52;;;0.32;;
68010;SDS011;54794;48.348;7.878;2024-01-06T09:13:17;0.88;;;0.60;;
68010;SDS011;54794;48.348;7.878;2024-01-06T09:15:44;1.60;;;0.75;;
68010;SDS011;54794;48.348;7.878;2024-01-06T09:18:11;1.40;;;0.43;;
68010;SDS011;54794;48.348;7.878;2024-01-06T09:20:40;0.90;;;0.40;;
68010;SDS011;54794;48.348;7.878;2024-01-06T09:23:06;0.85;;;0.40;;
68010;SDS011;54794;48.348;7.878;2024-01-06T09:25:33;1.70;;;0.60;;
68010;SDS011;54794;48.348;7.878;2024-01-06T09:28:00;1.13;;;0.50;;
68010;SDS011;54794;48.348;7.878;2024-01-06T09:30:27;0.70;;;0.50;;
68010;SDS011;54794;48.348;7.878;2024-01-06T09:32:54;0.52;;;0.40;;
68010;SDS011;54794;48.348;7.878;2024-01-06T09:35:21;1.35;;;0.60;;
68010;SDS011;54794;48.348;7.878;2024-01-06T09:37:48;1.25;;;0.60;;
68010;SDS011;54794;48.348;7.878;2024-01-06T09:40:14;0.70;;;0.40;;
68010;SDS011;54794;48.348;7.878;2024-01-06T09:42:49;2.03;;;0.63;;
68010;SDS011;54794;48.348;7.878;2024-01-06T09:45:17;2.40;;;0.70;;
68010;SDS011;54794;48.348;7.878;2024-01-06T09:47:45;2.83;;;0.60;;
68010;SDS011;54794;48.348;7.878;2024-01-06T09:50:19;0.90;;;0.50;;
68010;SDS011;54794;48.348;7.878;2024-01-06T09:52:47;1.20;;;0.50;;
68010;SDS011;54794;48.348;7.878;2024-01-06T09:55:23;1.20;;;0.45;;
68010;SDS011;54794;48.348;7.878;2024-01-06T09:57:53;1.13;;;0.55;;
68010;SDS011;54794;48.348;7.878;2024-01-06T10:00:21;4.03;;;0.70;;
68010;SDS011;54794;48.348;7.878;2024-01-06T10:02:48;2.50;;;0.68;;
68010;SDS011;54794;48.348;7.878;2024-01-06T10:05:17;1.50;;;0.60;;
68010;SDS011;54794;48.348;7.878;2024-01-06T10:07:45;1.67;;;0.80;;
68010;SDS011;54794;48.348;7.878;2024-01-06T10:10:14;1.17;;;0.75;;
68010;SDS011;54794;48.348;7.878;2024-01-06T10:12:42;2.08;;;0.70;;
68010;SDS011;54794;48.348;7.878;2024-01-06T10:15:09;1.90;;;0.70;;
68010;SDS011;54794;48.348;7.878;2024-01-06T10:17:41;1.27;;;0.70;;
68010;SDS011;54794;48.348;7.878;2024-01-06T10:20:09;1.35;;;0.77;;
68010;SDS011;54794;48.348;7.878;2024-01-06T10:22:38;0.90;;;0.60;;
68010;SDS011;54794;48.348;7.878;2024-01-06T10:25:08;1.95;;;0.70;;
68010;SDS011;54794;48.348;7.878;2024-01-06T10:27:37;1.20;;;0.70;;
68010;SDS011;54794;48.348;7.878;2024-01-06T10:30:06;2.03;;;0.70;;
68010;SDS011;54794;48.348;7.878;2024-01-06T10:32:35;1.10;;;0.63;;
68010;SDS011;54794;48.348;7.878;2024-01-06T10:35:03;1.08;;;0.70;;
68010;SDS011;54794;48.348;7.878;2024-01-06T10:37:33;1.85;;;0.63;;
68010;SDS011;54794;48.348;7.878;2024-01-06T10:42:45;1.23;;;0.73;;
68010;SDS011;54794;48.348;7.878;2024-01-06T10:45:13;0.75;;;0.40;;
68010;SDS011;54794;48.348;7.878;2024-01-06T10:47:42;0.77;;;0.40;;
68010;SDS011;54794;48.348;7.878;2024-01-06T10:50:10;0.60;;;0.50;;
68010;SDS011;54794;48.348;7.878;2024-01-06T10:52:41;1.50;;;0.50;;
68010;SDS011;54794;48.348;7.878;2024-01-06T10:55:09;1.45;;;0.63;;
68010;SDS011;54794;48.348;7.878;2024-01-06T11:00:04;1.15;;;0.70;;
68010;SDS011;54794;48.348;7.878;2024-01-06T11:02:32;1.05;;;0.60;;
68010;SDS011;54794;48.348;7.878;2024-01-06T11:05:01;2.40;;;0.95;;
68010;SDS011;54794;48.348;7.878;2024-01-06T11:07:28;1.35;;;0.98;;
68010;SDS011;54794;48.348;7.878;2024-01-06T11:09:57;2.00;;;0.70;;
68010;SDS011;54794;48.348;7.878;2024-01-06T11:12:45;0.80;;;0.63;;
68010;SDS011;54794;48.348;7.878;2024-01-06T11:15:38;1.15;;;0.40;;
68010;SDS011;54794;48.348;7.878;2024-01-06T11:18:31;1.17;;;0.55;;
68010;SDS011;54794;48.348;7.878;2024-01-06T11:21:21;1.23;;;0.55;;
68010;SDS011;54794;48.348;7.878;2024-01-06T11:26:41;1.02;;;0.60;;
68010;SDS011;54794;48.348;7.878;2024-01-06T11:29:10;1.17;;;0.70;;
68010;SDS011;54794;48.348;7.878;2024-01-06T11:31:37;1.92;;;0.75;;
68010;SDS011;54794;48.348;7.878;2024-01-06T11:53:33;0.52;;;0.45;;
68010;SDS011;54794;48.348;7.878;2024-01-06T11:56:01;1.10;;;0.57;;
68010;SDS011;54794;48.348;7.878;2024-01-06T12:01:19;0.70;;;0.50;;
68010;SDS011;54794;48.348;7.878;2024-01-06T12:03:53;1.00;;;0.60;;
68010;SDS011;54794;48.348;7.878;2024-01-06T12:06:25;0.65;;;0.38;;
68010;SDS011;54794;48.348;7.878;2024-01-06T12:09:02;1.05;;;0.65;;
68010;SDS011;54794;48.348;7.878;2024-01-06T12:11:42;0.80;;;0.50;;
68010;SDS011;54794;48.348;7.878;2024-01-06T12:14:13;0.90;;;0.60;;
68010;SDS011;54794;48.348;7.878;2024-01-06T12:16:42;0.95;;;0.40;;
68010;SDS011;54794;48.348;7.878;2024-01-06T12:19:51;0.60;;;0.50;;
68010;SDS011;54794;48.348;7.878;2024-01-06T12:25:34;1.35;;;0.65;;
68010;SDS011;54794;48.348;7.878;2024-01-06T12:28:09;1.10;;;0.52;;
68010;SDS011;54794;48.348;7.878;2024-01-06T12:31:17;0.52;;;0.40;;
68010;SDS011;54794;48.348;7.878;2024-01-06T12:34:31;1.20;;;0.77;;
68010;SDS011;54794;48.348;7.878;2024-01-06T12:37:23;1.02;;;0.50;;
68010;SDS011;54794;48.348;7.878;2024-01-06T12:40:04;2.28;;;0.70;;
68010;SDS011;54794;48.348;7.878;2024-01-06T12:42:44;0.70;;;0.43;;
68010;SDS011;54794;48.348;7.878;2024-01-06T12:45:17;0.90;;;0.70;;
68010;SDS011;54794;48.348;7.878;2024-01-06T12:47:46;0.82;;;0.50;;
68010;SDS011;54794;48.348;7.878;2024-01-06T12:50:21;1.25;;;0.65;;
68010;SDS011;54794;48.348;7.878;2024-01-06T12:52:48;0.85;;;0.50;;
68010;SDS011;54794;48.348;7.878;2024-01-06T12:55:22;1.25;;;0.95;;
68010;SDS011;54794;48.348;7.878;2024-01-06T12:57:52;1.20;;;0.73;;
68010;SDS011;54794;48.348;7.878;2024-01-06T13:00:30;0.77;;;0.65;;
68010;SDS011;54794;48.348;7.878;2024-01-06T13:03:10;0.88;;;0.65;;
68010;SDS011;54794;48.348;7.878;2024-01-06T13:09:29;2.67;;;0.82;;
68010;SDS011;54794;48.348;7.878;2024-01-06T13:14:34;1.13;;;0.60;;
68010;SDS011;54794;48.348;7.878;2024-01-06T13:17:05;1.73;;;0.80;;
68010;SDS011;54794;48.348;7.878;2024-01-06T13:19:33;1.58;;;0.90;;
68010;SDS011;54794;48.348;7.878;2024-01-06T13:22:03;2.15;;;1.00;;
68010;SDS011;54794;48.348;7.878;2024-01-06T13:25:07;2.13;;;1.10;;
68010;SDS011;54794;48.348;7.878;2024-01-06T13:27:42;1.42;;;0.68;;
68010;SDS011;54794;48.348;7.878;2024-01-06T13:30:13;1.48;;;0.73;;
68010;SDS011;54794;48.348;7.878;2024-01-06T13:32:47;1.77;;;0.98;;
68010;SDS011;54794;48.348;7.878;2024-01-06T13:35:22;1.58;;;0.82;;
68010;SDS011;54794;48.348;7.878;2024-01-06T13:38:00;1.85;;;0.98;;
68010;SDS011;54794;48.348;7.878;2024-01-06T13:40:39;1.92;;;1.23;;
68010;SDS011;54794;48.348;7.878;2024-01-06T13:43:21;2.35;;;1.38;;
68010;SDS011;54794;48.348;7.878;2024-01-06T13:46:27;1.52;;;0.95;;
68010;SDS011;54794;48.348;7.878;2024-01-06T13:49:09;1.65;;;1.05;;
68010;SDS011;54794;48.348;7.878;2024-01-06T13:51:47;1.85;;;0.95;;
68010;SDS011;54794;48.348;7.878;2024-01-06T13:54:35;1.90;;;0.70;;
68010;SDS011;54794;48.348;7.878;2024-01-06T13:58:39;1.27;;;0.65;;
68010;SDS011;54794;48.348;7.878;2024-01-06T14:04:45;0.70;;;0.47;;
68010;SDS011;54794;48.348;7.878;2024-01-06T14:07:15;1.00;;;0.82;;
68010;SDS011;54794;48.348;7.878;2024-01-06T14:09:49;1.50;;;0.57;;
68010;SDS011;54794;48.348;7.878;2024-01-06T14:12:22;1.50;;;0.90;;
68010;SDS011;54794;48.348;7.878;2024-01-06T14:14:51;1.33;;;0.73;;
68010;SDS011;54794;48.348;7.878;2024-01-06T14:17:24;1.70;;;0.90;;
68010;SDS011;54794;48.348;7.878;2024-01-06T14:19:54;1.10;;;0.88;;
68010;SDS011;54794;48.348;7.878;2024-01-06T14:22:31;0.98;;;0.70;;
68010;SDS011;54794;48.348;7.878;2024-01-06T14:24:58;2.00;;;0.75;;
68010;SDS011;54794;48.348;7.878;2024-01-06T14:27:31;1.60;;;0.80;;
68010;SDS011;54794;48.348;7.878;2024-01-06T14:30:01;1.55;;;1.00;;
68010;SDS011;54794;48.348;7.878;2024-01-06T14:32:28;2.20;;;0.70;;
68010;SDS011;54794;48.348;7.878;2024-01-06T14:35:14;1.70;;;0.90;;
68010;SDS011;54794;48.348;7.878;2024-01-06T14:49:15;1.00;;;0.60;;
68010;SDS011;54794;48.348;7.878;2024-01-06T14:52:22;1.85;;;0.73;;
68010;SDS011;54794;48.348;7.878;2024-01-06T14:59:02;1.05;;;0.55;;
68010;SDS011;54794;48.348;7.878;2024-01-06T15:06:01;2.40;;;0.65;;
68010;SDS011;54794;48.348;7.878;2024-01-06T15:14:02;0.65;;;0.40;;
68010;SDS011;54794;48.348;7.878;2024-01-06T15:22:43;0.70;;;0.35;;
68010;SDS011;54794;48.348;7.878;2024-01-06T15:26:00;0.70;;;0.40;;
68010;SDS011;54794;48.348;7.878;2024-01-06T15:36:36;3.67;;;1.83;;
68010;SDS011;54794;48.348;7.878;2024-01-06T15:40:20;4.00;;;2.70;;
68010;SDS011;54794;48.348;7.878;2024-01-06T15:47:14;4.45;;;2.80;;
68010;SDS011;54794;48.348;7.878;2024-01-06T15:59:01;1.52;;;0.95;;
68010;SDS011;54794;48.348;7.878;2024-01-06T16:05:40;1.02;;;0.63;;
68010;SDS011;54794;48.348;7.878;2024-01-06T16:12:51;0.73;;;0.50;;
68010;SDS011;54794;48.348;7.878;2024-01-06T16:16:17;0.88;;;0.60;;
68010;SDS011;54794;48.348;7.878;2024-01-06T16:23:08;0.73;;;0.55;;
68010;SDS011;54794;48.348;7.878;2024-01-06T16:26:54;4.13;;;2.38;;
68010;SDS011;54794;48.348;7.878;2024-01-06T16:30:44;2.63;;;1.90;;
68010;SDS011;54794;48.348;7.878;2024-01-06T16:34:19;3.22;;;1.95;;
68010;SDS011;54794;48.348;7.878;2024-01-06T16:41:03;2.33;;;1.10;;
68010;SDS011;54794;48.348;7.878;2024-01-06T16:44:06;2.85;;;1.17;;
68010;SDS011;54794;48.348;7.878;2024-01-06T16:47:12;2.28;;;1.48;;
68010;SDS011;54794;48.348;7.878;2024-01-06T16:53:21;1.73;;;1.08;;
68010;SDS011;54794;48.348;7.878;2024-01-06T16:56:59;2.00;;;1.30;;
68010;SDS011;54794;48.348;7.878;2024-01-06T17:00:50;2.70;;;1.50;;
68010;SDS011;54794;48.348;7.878;2024-01-06T17:04:12;3.25;;;1.60;;
68010;SDS011;54794;48.348;7.878;2024-01-06T17:10:57;2.58;;;1.40;;
68010;SDS011;54794;48.348;7.878;2024-01-06T17:17:36;3.03;;;1.67;;
68010;SDS011;54794;48.348;7.878;2024-01-06T17:20:53;3.22;;;2.05;;
68010;SDS011;54794;48.348;7.878;2024-01-06T17:23:34;2.80;;;1.80;;
68010;SDS011;54794;48.348;7.878;2024-01-06T17:34:41;1.77;;;1.00;;
68010;SDS011;54794;48.348;7.878;2024-01-06T17:37:12;1.20;;;0.90;;
68010;SDS011;54794;48.348;7.878;2024-01-06T17:47:05;2.00;;;1.13;;
68010;SDS011;54794;48.348;7.878;2024-01-06T17:50:58;1.35;;;0.90;;
68010;SDS011;54794;48.348;7.878;2024-01-06T17:54:55;1.33;;;0.80;;
68010;SDS011;54794;48.348;7.878;2024-01-06T17:58:27;1.17;;;0.98;;
68010;SDS011;54794;48.348;7.878;2024-01-06T18:01:14;1.20;;;1.00;;
68010;SDS011;54794;48.348;7.878;2024-01-06T18:10:23;2.28;;;1.02;;